Time;durP1;ratioP1;P1;durP2;ratioP2;P2;SDS_P1;SDS_P2;PMS_P1;PMS_P2;Temp;Humidity;BMP_temperature;BMP_pressure;BME280_temperature;BME280_humidity;BME280_pressure;Samples;Min_cycle;Max_cycle;Signal;HPM_P1;HPM_P2
2024/01/26 00:01:24;;;;;;;;;;;18.10;56.60;;;;;;5084585;27;43748;-80
2024/01/26 00:03:51;;;;;;;;;;;18.10;56.70;;;;;;5085491;27;42991;-80
2024/01/26 00:06:17;;;;;;;;;;;18.20;56.80;;;;;;5084894;28;43202;-79
2024/01/26 00:08:42;;;;;;;;;;;18.20;56.90;;;;;;5085209;27;42963;-78
2024/01/26 00:11:15;;;;;;;;;;;18.10;56.80;;;;;;5085492;27;43054;-79
2024/01/26 00:13:40;;;;;;;;;;;18.10;56.80;;;;;;5083694;27;43223;-78
2024/01/26 00:16:06;;;;;;;;;;;18.20;57.00;;;;;;5084751;28;43753;-78
2024/01/26 00:18:31;;;;;;;;;;;18.20;57.00;;;;;;5085256;27;43011;-77
2024/01/26 00:20:57;;;;;;;;;;;18.20;57.00;;;;;;5085354;27;42953;-78
2024/01/26 00:23:22;;;;;;;;;;;18.20;57.00;;;;;;5085028;27;42889;-78
2024/01/26 00:25:48;;;;;;;;;;;18.20;57.20;;;;;;5084383;27;44087;-78
2024/01/26 00:28:13;;;;;;;;;;;18.20;57.10;;;;;;5083103;27;42983;-78
2024/01/26 00:30:38;;;;;;;;;;;18.20;57.20;;;;;;5085488;27;42943;-78
2024/01/26 00:33:04;;;;;;;;;;;18.20;57.20;;;;;;5085291;27;42942;-78
2024/01/26 00:35:30;;;;;;;;;;;18.20;57.20;;;;;;5084765;28;43762;-77
2024/01/26 00:37:55;;;;;;;;;;;18.20;57.30;;;;;;5085157;27;42975;-77
2024/01/26 00:40:21;;;;;;;;;;;18.20;57.40;;;;;;5084967;27;44176;-77
2024/01/26 00:42:47;;;;;;;;;;;18.10;57.10;;;;;;5085620;28;43052;-77
2024/01/26 00:45:13;;;;;;;;;;;18.20;57.20;;;;;;5089351;27;43045;-78
2024/01/26 00:47:39;;;;;;;;;;;18.10;57.20;;;;;;5092248;27;42945;-78
2024/01/26 00:50:04;;;;;;;;;;;18.10;57.20;;;;;;5085344;27;43625;-77
2024/01/26 00:52:30;;;;;;;;;;;18.10;57.20;;;;;;5085349;27;43074;-78
2024/01/26 00:54:56;;;;;;;;;;;18.20;57.10;;;;;;5084697;27;42947;-77
2024/01/26 00:57:21;;;;;;;;;;;18.10;57.10;;;;;;5084101;27;43007;-78
2024/01/26 00:59:47;;;;;;;;;;;18.10;57.10;;;;;;5084094;27;42976;-77
2024/01/26 01:02:14;;;;;;;;;;;18.10;57.10;;;;;;5084454;28;43046;-78
2024/01/26 01:04:39;;;;;;;;;;;18.10;57.20;;;;;;5082392;27;44475;-78
2024/01/26 01:07:05;;;;;;;;;;;18.10;57.20;;;;;;5083670;28;42965;-77
2024/01/26 01:09:31;;;;;;;;;;;18.10;57.20;;;;;;5084259;27;42950;-78
2024/01/26 01:11:57;;;;;;;;;;;18.10;57.10;;;;;;5084392;27;42841;-78
2024/01/26 01:14:23;;;;;;;;;;;18.10;57.10;;;;;;5084320;28;43016;-78
2024/01/26 01:16:50;;;;;;;;;;;18.10;57.20;;;;;;5084621;28;42914;-78
2024/01/26 01:19:15;;;;;;;;;;;18.10;57.20;;;;;;5084380;27;44415;-77
2024/01/26 01:21:41;;;;;;;;;;;18.10;57.20;;;;;;5084900;28;43249;-78
2024/01/26 01:24:06;;;;;;;;;;;18.10;57.20;;;;;;5084230;27;43103;-78
2024/01/26 01:26:32;;;;;;;;;;;18.10;57.10;;;;;;5083928;27;43127;-77
2024/01/26 01:28:57;;;;;;;;;;;18.10;57.30;;;;;;5085218;27;42810;-78
2024/01/26 01:31:23;;;;;;;;;;;17.60;57.00;;;;;;5084926;27;43030;-79
2024/01/26 01:33:48;;;;;;;;;;;18.10;57.30;;;;;;5084324;27;42891;-79
2024/01/26 01:36:14;;;;;;;;;;;18.10;57.30;;;;;;5084316;27;42941;-79
2024/01/26 01:38:39;;;;;;;;;;;18.10;57.20;;;;;;5086453;27;43622;-78
2024/01/26 01:41:05;;;;;;;;;;;18.10;57.40;;;;;;5087773;28;42857;-79
2024/01/26 01:43:31;;;;;;;;;;;18.10;57.60;;;;;;5066492;27;43151;-78
2024/01/26 01:45:56;;;;;;;;;;;18.10;57.40;;;;;;5087825;27;42956;-78
2024/01/26 01:48:23;;;;;;;;;;;18.10;57.50;;;;;;5087438;28;43706;-78
2024/01/26 01:50:49;;;;;;;;;;;18.10;57.60;;;;;;5087314;27;43135;-78
2024/01/26 01:53:14;;;;;;;;;;;18.10;57.50;;;;;;5087063;27;43013;-78
2024/01/26 01:55:41;;;;;;;;;;;18.10;57.80;;;;;;5087884;27;42933;-78
2024/01/26 01:58:06;;;;;;;;;;;18.10;57.90;;;;;;5087427;27;43053;-78
2024/01/26 02:00:32;;;;;;;;;;;18.00;57.90;;;;;;5087460;28;42876;-78
2024/01/26 02:02:58;;;;;;;;;;;18.10;58.40;;;;;;5086991;27;43079;-79
2024/01/26 02:05:23;;;;;;;;;;;18.10;57.90;;;;;;5087911;27;43155;-80
2024/01/26 02:07:50;;;;;;;;;;;18.00;58.20;;;;;;5084420;27;43806;-78
2024/01/26 02:10:15;;;;;;;;;;;18.00;58.30;;;;;;5087261;28;43001;-77
2024/01/26 02:12:41;;;;;;;;;;;18.10;58.20;;;;;;5085779;27;43014;-80
2024/01/26 02:15:08;;;;;;;;;;;18.10;58.40;;;;;;5087360;28;42890;-80
2024/01/26 02:17:33;;;;;;;;;;;18.00;58.70;;;;;;5085335;27;44008;-79
2024/01/26 02:19:59;;;;;;;;;;;18.00;58.30;;;;;;5086521;27;42925;-77
2024/01/26 02:22:25;;;;;;;;;;;18.00;58.50;;;;;;5086636;27;43290;-79
2024/01/26 02:24:51;;;;;;;;;;;18.00;58.40;;;;;;5085391;27;43155;-80
2024/01/26 02:27:18;;;;;;;;;;;18.10;58.30;;;;;;5086821;27;43653;-80
2024/01/26 02:29:44;;;;;;;;;;;18.00;58.30;;;;;;5086598;27;42949;-79
2024/01/26 02:32:09;;;;;;;;;;;18.00;58.60;;;;;;5085448;27;45939;-80
2024/01/26 02:34:35;;;;;;;;;;;18.00;58.30;;;;;;5086412;27;43130;-78
2024/01/26 02:37:00;;;;;;;;;;;18.00;58.70;;;;;;5085814;27;42857;-80
2024/01/26 02:39:27;;;;;;;;;;;18.00;58.70;;;;;;5086027;27;42942;-79
2024/01/26 02:41:53;;;;;;;;;;;18.10;58.50;;;;;;5085929;27;43067;-78
2024/01/26 02:44:19;;;;;;;;;;;18.10;58.80;;;;;;5086513;27;42944;-79
2024/01/26 02:46:47;;;;;;;;;;;18.10;58.70;;;;;;5086642;28;43541;-79
2024/01/26 02:49:13;;;;;;;;;;;18.10;58.40;;;;;;5085709;27;42879;-79
2024/01/26 02:51:38;;;;;;;;;;;18.10;58.60;;;;;;5084469;27;43725;-80
2024/01/26 02:54:04;;;;;;;;;;;18.10;58.80;;;;;;5086117;28;42971;-80
2024/01/26 02:56:29;;;;;;;;;;;18.10;58.80;;;;;;5085129;28;43057;-79
2024/01/26 02:58:55;;;;;;;;;;;18.10;58.70;;;;;;5085039;28;42957;-79
2024/01/26 03:01:20;;;;;;;;;;;18.10;58.80;;;;;;5085977;27;43921;-77
2024/01/26 03:03:46;;;;;;;;;;;18.10;58.50;;;;;;5086293;28;42908;-79
2024/01/26 03:06:14;;;;;;;;;;;18.10;58.50;;;;;;5093909;28;44418;-79
2024/01/26 03:08:39;;;;;;;;;;;18.10;58.40;;;;;;5089984;28;43123;-79
2024/01/26 03:11:05;;;;;;;;;;;18.10;58.40;;;;;;5085589;27;43674;-80
2024/01/26 03:13:31;;;;;;;;;;;18.10;58.70;;;;;;5084699;28;43061;-80
2024/01/26 03:15:56;;;;;;;;;;;18.10;58.60;;;;;;5085235;27;42992;-78
2024/01/26 03:18:22;;;;;;;;;;;18.10;58.70;;;;;;5086753;28;42838;-78
2024/01/26 03:20:47;;;;;;;;;;;18.10;58.80;;;;;;5084756;27;42970;-78
2024/01/26 03:23:13;;;;;;;;;;;18.10;58.60;;;;;;5086287;28;42965;-80
2024/01/26 03:25:39;;;;;;;;;;;18.10;58.60;;;;;;5085054;28;43635;-79
2024/01/26 03:28:07;;;;;;;;;;;18.10;58.70;;;;;;5086741;28;42968;-79
2024/01/26 03:30:32;;;;;;;;;;;18.10;58.70;;;;;;5085470;27;42977;-79
2024/01/26 03:32:58;;;;;;;;;;;18.10;58.80;;;;;;5085988;27;43305;-77
2024/01/26 03:35:24;;;;;;;;;;;18.10;59.10;;;;;;5082845;28;43732;-80
2024/01/26 03:37:49;;;;;;;;;;;18.10;58.80;;;;;;5073365;28;42980;-79
2024/01/26 03:40:15;;;;;;;;;;;18.10;58.90;;;;;;5083909;28;43280;-79
2024/01/26 03:42:41;;;;;;;;;;;18.10;58.60;;;;;;5086100;27;42899;-78
2024/01/26 03:45:07;;;;;;;;;;;18.10;58.90;;;;;;5084402;27;43278;-79
2024/01/26 03:47:33;;;;;;;;;;;20.20;60.30;;;;;;5085728;27;43002;-80
2024/01/26 03:49:58;;;;;;;;;;;18.10;59.00;;;;;;5085731;28;43535;-80
2024/01/26 03:52:24;;;;;;;;;;;18.10;58.90;;;;;;5085890;27;43603;-78
2024/01/26 03:54:50;;;;;;;;;;;18.10;58.80;;;;;;5085019;28;43012;-77
2024/01/26 03:57:15;;;;;;;;;;;18.10;58.70;;;;;;5083197;28;43013;-80
2024/01/26 03:59:41;;;;;;;;;;;18.10;58.90;;;;;;5084278;28;42974;-79
2024/01/26 04:02:06;;;;;;;;;;;18.10;59.00;;;;;;5084969;27;43420;-79
2024/01/26 04:04:32;;;;;;;;;;;18.10;58.80;;;;;;5084042;27;43475;-78
2024/01/26 04:06:57;;;;;;;;;;;18.10;58.80;;;;;;5077557;28;42956;-79
2024/01/26 04:09:23;;;;;;;;;;;18.10;58.90;;;;;;5082418;28;43167;-80
2024/01/26 04:11:48;;;;;;;;;;;18.10;58.90;;;;;;5080508;27;42937;-79
2024/01/26 04:14:14;;;;;;;;;;;18.10;58.70;;;;;;5084259;27;42915;-79
2024/01/26 04:16:39;;;;;;;;;;;18.10;58.70;;;;;;5084887;27;42938;-79
2024/01/26 04:19:05;;;;;;;;;;;18.10;58.80;;;;;;5083576;28;42935;-80
2024/01/26 04:21:31;;;;;;;;;;;18.10;58.60;;;;;;5085159;27;42932;-79
2024/01/26 04:23:56;;;;;;;;;;;18.10;58.80;;;;;;5083231;27;43514;-78
2024/01/26 04:26:22;;;;;;;;;;;18.10;58.80;;;;;;5084491;27;42906;-78
2024/01/26 04:28:47;;;;;;;;;;;18.10;58.60;;;;;;5084603;27;42976;-79
2024/01/26 04:31:14;;;;;;;;;;;18.10;58.80;;;;;;5084746;27;43027;-78
2024/01/26 04:33:39;;;;;;;;;;;18.10;58.80;;;;;;5100372;27;45595;-79
2024/01/26 04:36:08;;;;;;;;;;;18.10;58.60;;;;;;5084356;27;43124;-80
2024/01/26 04:38:37;;;;;;;;;;;18.10;58.70;;;;;;5081515;27;44639;-79
2024/01/26 04:41:03;;;;;;;;;;;18.10;58.90;;;;;;5076208;27;42939;-78
2024/01/26 04:43:29;;;;;;;;;;;18.10;58.80;;;;;;5084251;27;43687;-80
2024/01/26 04:45:55;;;;;;;;;;;18.10;59.00;;;;;;5084453;27;43044;-79
2024/01/26 04:48:20;;;;;;;;;;;18.10;59.00;;;;;;5083925;27;43035;-78
2024/01/26 04:50:46;;;;;;;;;;;18.10;59.00;;;;;;5084206;28;42924;-78
2024/01/26 04:53:12;;;;;;;;;;;18.10;59.00;;;;;;5084199;27;43724;-78
2024/01/26 04:55:37;;;;;;;;;;;18.10;58.80;;;;;;5084045;27;43068;-78
2024/01/26 04:58:03;;;;;;;;;;;18.10;59.10;;;;;;5084410;27;43645;-79
2024/01/26 05:00:28;;;;;;;;;;;18.10;59.00;;;;;;5083999;27;42976;-77
2024/01/26 05:02:54;;;;;;;;;;;18.10;59.10;;;;;;5082636;27;43772;-79
2024/01/26 05:05:19;;;;;;;;;;;18.10;58.80;;;;;;5083509;27;43312;-78
2024/01/26 05:07:45;;;;;;;;;;;18.10;59.00;;;;;;5070683;27;45086;-78
2024/01/26 05:10:11;;;;;;;;;;;18.10;59.30;;;;;;5083735;28;43066;-78
2024/01/26 05:12:37;;;;;;;;;;;18.10;59.10;;;;;;5081460;28;43840;-79
2024/01/26 05:15:02;;;;;;;;;;;18.10;59.40;;;;;;5082032;28;43000;-77
2024/01/26 05:17:28;;;;;;;;;;;18.10;59.50;;;;;;5079658;28;42908;-79
2024/01/26 05:19:53;;;;;;;;;;;18.10;59.60;;;;;;5081172;28;43275;-80
2024/01/26 05:22:19;;;;;;;;;;;18.10;59.40;;;;;;5078920;27;43863;-77
2024/01/26 05:24:45;;;;;;;;;;;18.10;59.40;;;;;;5086613;27;42990;-78
2024/01/26 05:27:11;;;;;;;;;;;18.10;59.60;;;;;;5081428;28;42968;-80
2024/01/26 05:29:36;;;;;;;;;;;18.10;59.60;;;;;;5080259;27;44188;-79
2024/01/26 05:32:02;;;;;;;;;;;18.10;59.40;;;;;;5070574;28;43044;-80
2024/01/26 05:34:27;;;;;;;;;;;18.10;59.50;;;;;;5083836;27;42913;-79
2024/01/26 05:36:53;;;;;;;;;;;18.10;59.50;;;;;;5084912;28;42870;-78
2024/01/26 05:39:18;;;;;;;;;;;18.10;59.50;;;;;;5083827;28;43004;-78
2024/01/26 05:41:44;;;;;;;;;;;18.10;59.70;;;;;;5082727;27;42928;-78
2024/01/26 05:44:10;;;;;;;;;;;18.10;59.80;;;;;;5083781;27;42841;-78
2024/01/26 05:46:35;;;;;;;;;;;18.10;60.00;;;;;;5082482;28;43704;-78
2024/01/26 05:49:01;;;;;;;;;;;18.10;59.70;;;;;;5082803;27;42810;-78
2024/01/26 05:51:26;;;;;;;;;;;18.10;59.50;;;;;;5082456;28;43403;-79
2024/01/26 05:53:52;;;;;;;;;;;18.10;59.60;;;;;;5082268;28;43087;-80
2024/01/26 05:56:18;;;;;;;;;;;18.10;59.50;;;;;;5083066;27;42929;-80
2024/01/26 05:58:44;;;;;;;;;;;18.10;59.60;;;;;;5070580;28;42917;-77
2024/01/26 06:01:09;;;;;;;;;;;18.10;59.50;;;;;;5074349;28;43349;-77
2024/01/26 06:03:35;;;;;;;;;;;18.10;59.50;;;;;;5081996;28;42996;-77
2024/01/26 06:06:00;;;;;;;;;;;18.10;59.60;;;;;;5082066;28;44310;-78
2024/01/26 06:08:26;;;;;;;;;;;18.10;59.60;;;;;;5081778;28;43000;-76
2024/01/26 06:10:56;;;;;;;;;;;18.10;59.70;;;;;;5078621;28;43027;-79
2024/01/26 06:13:22;;;;;;;;;;;18.10;59.50;;;;;;5080538;27;43292;-80
2024/01/26 06:15:48;;;;;;;;;;;18.10;59.60;;;;;;5082167;27;43039;-78
2024/01/26 06:18:13;;;;;;;;;;;18.00;59.60;;;;;;5083551;27;43133;-78
2024/01/26 06:20:39;;;;;;;;;;;18.10;59.70;;;;;;5082619;27;43058;-77
2024/01/26 06:23:05;;;;;;;;;;;18.00;59.40;;;;;;5083863;27;42971;-79
2024/01/26 06:25:31;;;;;;;;;;;18.10;59.60;;;;;;5083740;27;43813;-77
2024/01/26 06:27:57;;;;;;;;;;;18.10;59.60;;;;;;5087666;27;43109;-81
2024/01/26 06:30:23;;;;;;;;;;;18.00;59.50;;;;;;5087824;28;42877;-80
2024/01/26 06:32:48;;;;;;;;;;;18.00;59.40;;;;;;5087229;27;42983;-79
2024/01/26 06:35:14;;;;;;;;;;;18.00;59.50;;;;;;5085755;27;43861;-78
2024/01/26 06:37:40;;;;;;;;;;;18.00;59.20;;;;;;5086841;28;42903;-78
2024/01/26 06:40:09;;;;;;;;;;;18.00;58.90;;;;;;5086607;27;43772;-78
2024/01/26 06:42:36;;;;;;;;;;;18.20;59.60;;;;;;5085723;27;42974;-77
2024/01/26 06:45:03;;;;;;;;;;;18.10;58.90;;;;;;5086454;28;43098;-78
2024/01/26 06:47:28;;;;;;;;;;;18.00;59.00;;;;;;5084226;27;42928;-79
2024/01/26 06:49:54;;;;;;;;;;;18.00;59.20;;;;;;5085440;28;43349;-78
2024/01/26 06:52:19;;;;;;;;;;;18.00;59.00;;;;;;5086161;27;42984;-77
2024/01/26 06:54:45;;;;;;;;;;;18.00;59.20;;;;;;5086427;27;42936;-77
2024/01/26 06:57:10;;;;;;;;;;;18.00;59.30;;;;;;5086775;28;43305;-80
2024/01/26 06:59:38;;;;;;;;;;;18.00;59.30;;;;;;5086377;27;43020;-77
2024/01/26 07:02:04;;;;;;;;;;;18.00;59.20;;;;;;5086810;27;43159;-77
2024/01/26 07:04:30;;;;;;;;;;;18.00;59.30;;;;;;5086679;27;43900;-77
2024/01/26 07:06:55;;;;;;;;;;;18.00;59.50;;;;;;5087361;28;43001;-80
2024/01/26 07:09:21;;;;;;;;;;;18.00;59.30;;;;;;5087303;27;43077;-79
2024/01/26 07:11:46;;;;;;;;;;;18.00;59.20;;;;;;5087123;28;43011;-80
2024/01/26 07:14:12;;;;;;;;;;;18.00;59.10;;;;;;5086546;27;43442;-80
2024/01/26 07:16:37;;;;;;;;;;;18.00;59.20;;;;;;5087459;27;42983;-78
2024/01/26 07:19:03;;;;;;;;;;;18.00;59.30;;;;;;5086413;28;43384;-78
2024/01/26 07:21:28;;;;;;;;;;;18.00;59.40;;;;;;5086650;27;42842;-79
2024/01/26 07:23:54;;;;;;;;;;;18.00;59.30;;;;;;5086064;27;43669;-76
2024/01/26 07:26:20;;;;;;;;;;;18.00;59.10;;;;;;5086250;27;43140;-79
2024/01/26 07:28:46;;;;;;;;;;;18.00;59.10;;;;;;5086019;27;43023;-79
2024/01/26 07:31:12;;;;;;;;;;;18.00;59.20;;;;;;5085826;28;42833;-79
2024/01/26 07:33:37;;;;;;;;;;;18.00;59.10;;;;;;5086761;27;43884;-79
2024/01/26 07:36:03;;;;;;;;;;;18.00;59.30;;;;;;5085273;27;42968;-79
2024/01/26 07:38:29;;;;;;;;;;;18.00;59.10;;;;;;5086242;27;44366;-80
2024/01/26 07:40:54;;;;;;;;;;;17.80;59.70;;;;;;5086516;28;42907;-77
2024/01/26 07:43:20;;;;;;;;;;;18.00;59.10;;;;;;5086038;27;43633;-79
2024/01/26 07:45:45;;;;;;;;;;;18.00;59.10;;;;;;5092688;28;42984;-77
2024/01/26 07:48:12;;;;;;;;;;;18.00;59.00;;;;;;5087346;27;43690;-78
2024/01/26 07:50:41;;;;;;;;;;;18.00;59.50;;;;;;5086342;27;43023;-77
2024/01/26 07:53:07;;;;;;;;;;;18.00;60.00;;;;;;5086177;27;42866;-77
2024/01/26 07:55:32;;;;;;;;;;;18.00;59.40;;;;;;5084825;28;42890;-80
2024/01/26 07:57:58;;;;;;;;;;;18.00;59.40;;;;;;5085894;27;43030;-78
2024/01/26 08:00:23;;;;;;;;;;;18.00;59.50;;;;;;5086007;28;43593;-79
2024/01/26 08:02:49;;;;;;;;;;;18.00;58.40;;;;;;5085969;28;42984;-78
2024/01/26 08:05:15;;;;;;;;;;;17.90;52.40;;;;;;5086439;27;42936;-77
2024/01/26 08:07:40;;;;;;;;;;;17.90;52.60;;;;;;5083945;28;44343;-75
2024/01/26 08:10:06;;;;;;;;;;;17.80;51.20;;;;;;5085839;27;43022;-75
2024/01/26 08:12:31;;;;;;;;;;;17.70;52.30;;;;;;5085544;27;42965;-80
2024/01/26 08:14:57;;;;;;;;;;;17.70;53.60;;;;;;5086091;28;42975;-85
2024/01/26 08:17:22;;;;;;;;;;;17.80;55.20;;;;;;5085459;27;43071;-76
2024/01/26 08:19:48;;;;;;;;;;;17.80;56.70;;;;;;5085424;28;42993;-82
2024/01/26 08:22:14;;;;;;;;;;;17.80;56.60;;;;;;5085621;27;43579;-78
2024/01/26 08:24:39;;;;;;;;;;;17.70;57.00;;;;;;5085821;28;43815;-76
2024/01/26 08:27:05;;;;;;;;;;;17.80;57.30;;;;;;5086000;28;43048;-76
2024/01/26 08:29:31;;;;;;;;;;;17.70;57.60;;;;;;5085585;28;42863;-81
2024/01/26 08:31:57;;;;;;;;;;;17.70;57.20;;;;;;5084884;27;43028;-82
2024/01/26 08:34:22;;;;;;;;;;;17.70;57.30;;;;;;5084735;27;43074;-81
2024/01/26 08:36:48;;;;;;;;;;;17.70;57.10;;;;;;5084667;28;42944;-80
2024/01/26 08:39:14;;;;;;;;;;;17.70;57.10;;;;;;5100904;27;43016;-81
2024/01/26 08:41:40;;;;;;;;;;;17.70;57.00;;;;;;5085119;27;43019;-80
2024/01/26 08:44:05;;;;;;;;;;;16.30;56.70;;;;;;5084286;28;42961;-80
2024/01/26 08:46:31;;;;;;;;;;;17.70;56.60;;;;;;5084971;27;43656;-81
2024/01/26 08:48:56;;;;;;;;;;;17.70;57.90;;;;;;5084285;27;42837;-81
2024/01/26 08:51:23;;;;;;;;;;;17.70;56.50;;;;;;5085446;27;43479;-81
2024/01/26 08:53:49;;;;;;;;;;;17.70;56.30;;;;;;5085534;28;43441;-80
2024/01/26 08:56:15;;;;;;;;;;;17.70;57.40;;;;;;5084854;27;43990;-81
2024/01/26 08:58:41;;;;;;;;;;;17.70;56.20;;;;;;5084892;28;42941;-81
2024/01/26 09:01:07;;;;;;;;;;;17.60;56.10;;;;;;5085502;27;42819;-81
2024/01/26 09:03:32;;;;;;;;;;;17.60;56.00;;;;;;5085439;27;42748;-77
2024/01/26 09:05:58;;;;;;;;;;;17.60;55.90;;;;;;5084736;27;43623;-76
2024/01/26 09:08:24;;;;;;;;;;;17.60;55.80;;;;;;5085294;27;42929;-79
2024/01/26 09:10:49;;;;;;;;;;;17.60;55.80;;;;;;5083897;28;44723;-78
2024/01/26 09:13:15;;;;;;;;;;;17.60;55.70;;;;;;5084683;28;43667;-81
2024/01/26 09:15:41;;;;;;;;;;;17.60;55.90;;;;;;5084910;27;43909;-76
2024/01/26 09:18:08;;;;;;;;;;;17.60;55.60;;;;;;5085060;27;42898;-75
2024/01/26 09:20:34;;;;;;;;;;;17.60;56.20;;;;;;5083220;28;44361;-75
2024/01/26 09:22:59;;;;;;;;;;;17.60;55.60;;;;;;5084719;28;42970;-75
2024/01/26 09:25:25;;;;;;;;;;;17.70;55.60;;;;;;5085289;27;43789;-80
2024/01/26 09:27:50;;;;;;;;;;;17.60;55.40;;;;;;5084956;27;42990;-81
2024/01/26 09:30:16;;;;;;;;;;;17.60;55.40;;;;;;5085906;28;44579;-80
2024/01/26 09:32:41;;;;;;;;;;;17.20;56.30;;;;;;5084995;27;42826;-78
2024/01/26 09:35:09;;;;;;;;;;;17.60;55.40;;;;;;5085717;28;42877;-76
2024/01/26 09:37:35;;;;;;;;;;;17.60;55.40;;;;;;5084345;27;43261;-81
2024/01/26 09:40:01;;;;;;;;;;;17.60;55.30;;;;;;5084775;28;42958;-77
2024/01/26 09:42:26;;;;;;;;;;;17.60;55.30;;;;;;5084869;28;43101;-76
2024/01/26 09:44:52;;;;;;;;;;;17.60;55.30;;;;;;5083131;27;44690;-79
2024/01/26 09:47:18;;;;;;;;;;;17.60;55.30;;;;;;5082998;28;42846;-81
2024/01/26 09:49:56;;;;;;;;;;;17.60;56.00;;;;;;5083574;27;43871;-81
2024/01/26 09:52:22;;;;;;;;;;;17.60;55.10;;;;;;5073028;28;42933;-81
2024/01/26 09:54:50;;;;;;;;;;;17.60;55.10;;;;;;5084299;27;42950;-81
2024/01/26 09:57:16;;;;;;;;;;;17.30;55.40;;;;;;5085214;27;42877;-81
2024/01/26 09:59:42;;;;;;;;;;;17.70;55.10;;;;;;5085823;27;43476;-80
2024/01/26 10:02:09;;;;;;;;;;;17.60;55.10;;;;;;5087930;27;42992;-81
2024/01/26 10:04:34;;;;;;;;;;;17.60;55.60;;;;;;5087563;27;43896;-79
2024/01/26 10:07:00;;;;;;;;;;;17.60;55.10;;;;;;5090548;27;42862;-80
2024/01/26 10:09:25;;;;;;;;;;;17.60;54.90;;;;;;5093839;27;43076;-80
2024/01/26 10:11:51;;;;;;;;;;;17.60;55.00;;;;;;5087617;28;42970;-82
2024/01/26 10:14:21;;;;;;;;;;;17.60;55.00;;;;;;5086947;28;43584;-80
2024/01/26 10:17:00;;;;;;;;;;;19.80;56.00;;;;;;5087400;27;42954;-81
2024/01/26 10:19:26;;;;;;;;;;;17.60;54.90;;;;;;5086851;28;42905;-81
2024/01/26 10:21:52;;;;;;;;;;;17.60;55.00;;;;;;5087473;27;42970;-82
2024/01/26 10:24:19;;;;;;;;;;;17.60;54.90;;;;;;5086669;27;44338;-82
2024/01/26 10:26:44;;;;;;;;;;;17.60;55.00;;;;;;5086923;27;43075;-80
2024/01/26 10:29:10;;;;;;;;;;;17.60;55.00;;;;;;5087471;27;42921;-81
2024/01/26 10:31:46;;;;;;;;;;;17.60;54.90;;;;;;5087779;27;42980;-81
2024/01/26 10:34:13;;;;;;;;;;;17.60;54.90;;;;;;5087247;27;44401;-81
2024/01/26 10:36:40;;;;;;;;;;;17.70;54.90;;;;;;5087561;27;42988;-77
2024/01/26 10:39:07;;;;;;;;;;;17.70;55.00;;;;;;5087378;27;42980;-76
2024/01/26 10:41:37;;;;;;;;;;;19.60;56.40;;;;;;5087315;27;42973;-77
2024/01/26 10:44:03;;;;;;;;;;;17.60;54.90;;;;;;5087052;27;43300;-80
2024/01/26 10:46:29;;;;;;;;;;;17.70;54.90;;;;;;5087668;27;42918;-76
2024/01/26 10:48:56;;;;;;;;;;;17.70;54.90;;;;;;5086009;27;43028;-79
2024/01/26 10:51:21;;;;;;;;;;;17.70;54.90;;;;;;5086944;27;42969;-80
2024/01/26 10:53:48;;;;;;;;;;;17.70;55.00;;;;;;5086957;27;43496;-76
2024/01/26 10:56:13;;;;;;;;;;;17.70;54.90;;;;;;5086790;27;43030;-80
2024/01/26 10:58:39;;;;;;;;;;;17.60;54.90;;;;;;5086469;27;43046;-82
2024/01/26 11:01:05;;;;;;;;;;;17.70;54.90;;;;;;5086230;27;43105;-81
2024/01/26 11:03:31;;;;;;;;;;;17.70;54.90;;;;;;5086220;27;43599;-81
2024/01/26 11:05:56;;;;;;;;;;;17.70;54.80;;;;;;5086874;28;42900;-81
2024/01/26 11:08:26;;;;;;;;;;;17.70;54.80;;;;;;5086682;27;43542;-80
2024/01/26 11:10:53;;;;;;;;;;;17.70;54.80;;;;;;5086007;27;42961;-81
2024/01/26 11:13:22;;;;;;;;;;;17.70;54.60;;;;;;5074927;27;43765;-81
2024/01/26 11:15:48;;;;;;;;;;;17.70;54.60;;;;;;5084368;27;42980;-80
2024/01/26 11:18:21;;;;;;;;;;;17.70;54.60;;;;;;5086811;27;43338;-82
2024/01/26 11:20:48;;;;;;;;;;;17.70;54.60;;;;;;5086715;27;43034;-80
2024/01/26 11:23:14;;;;;;;;;;;17.70;54.60;;;;;;5087016;27;43395;-80
2024/01/26 11:25:41;;;;;;;;;;;17.70;54.60;;;;;;5086406;27;42844;-81
2024/01/26 11:28:07;;;;;;;;;;;17.70;54.60;;;;;;5086986;27;42921;-82
2024/01/26 11:30:34;;;;;;;;;;;17.70;54.70;;;;;;5086205;27;42888;-82
2024/01/26 11:33:00;;;;;;;;;;;17.70;54.60;;;;;;5086568;27;44439;-82
2024/01/26 11:35:26;;;;;;;;;;;17.70;54.70;;;;;;5086074;27;43027;-82
2024/01/26 11:37:53;;;;;;;;;;;17.70;54.70;;;;;;5086558;27;43488;-79
2024/01/26 11:40:23;;;;;;;;;;;17.70;54.60;;;;;;5085902;27;43121;-80
2024/01/26 11:42:51;;;;;;;;;;;17.70;54.60;;;;;;5085931;28;43073;-79
2024/01/26 11:45:26;;;;;;;;;;;17.70;54.70;;;;;;5086327;27;42868;-79
2024/01/26 11:47:52;;;;;;;;;;;17.70;54.60;;;;;;5086456;27;43481;-80
2024/01/26 11:50:18;;;;;;;;;;;17.70;54.60;;;;;;5085203;27;42925;-81
2024/01/26 11:52:44;;;;;;;;;;;17.70;54.60;;;;;;5085852;27;43004;-80
2024/01/26 11:55:12;;;;;;;;;;;17.70;54.70;;;;;;5083735;27;42963;-79
2024/01/26 11:57:37;;;;;;;;;;;17.70;54.60;;;;;;5081192;27;43313;-77
2024/01/26 12:00:09;;;;;;;;;;;17.70;54.60;;;;;;5079010;28;43008;-78
2024/01/26 12:02:35;;;;;;;;;;;17.70;53.40;;;;;;5085299;27;44481;-77
2024/01/26 12:05:00;;;;;;;;;;;17.60;51.20;;;;;;5085773;27;42906;-79
2024/01/26 12:07:26;;;;;;;;;;;17.40;50.00;;;;;;5085951;28;43022;-78
2024/01/26 12:09:52;;;;;;;;;;;17.30;49.70;;;;;;5085679;27;42936;-74
2024/01/26 12:12:17;;;;;;;;;;;17.20;49.30;;;;;;5086525;28;42842;-79
2024/01/26 12:14:43;;;;;;;;;;;17.20;49.30;;;;;;5086070;27;42995;-78
2024/01/26 12:17:09;;;;;;;;;;;17.20;49.30;;;;;;5086375;28;42902;-78
2024/01/26 12:19:35;;;;;;;;;;;17.00;49.00;;;;;;5085315;28;43021;-75
2024/01/26 12:22:00;;;;;;;;;;;17.00;49.30;;;;;;5085044;27;42846;-77
2024/01/26 12:24:26;;;;;;;;;;;17.00;49.20;;;;;;5085485;28;42970;-78
2024/01/26 12:26:51;;;;;;;;;;;17.00;48.80;;;;;;5086714;28;43296;-80
2024/01/26 12:29:18;;;;;;;;;;;16.90;49.60;;;;;;5075471;27;43166;-78
2024/01/26 12:31:44;;;;;;;;;;;16.90;49.40;;;;;;5084242;28;44169;-78
2024/01/26 12:34:15;;;;;;;;;;;17.00;49.90;;;;;;5078669;28;42862;-79
2024/01/26 12:36:41;;;;;;;;;;;17.00;50.40;;;;;;5083193;28;42969;-78
2024/01/26 12:39:06;;;;;;;;;;;17.10;51.50;;;;;;5085471;28;42925;-76
2024/01/26 12:41:32;;;;;;;;;;;17.20;51.60;;;;;;5083993;28;43118;-78
2024/01/26 12:43:58;;;;;;;;;;;17.30;51.30;;;;;;5083823;28;43006;-77
2024/01/26 12:46:24;;;;;;;;;;;17.40;51.40;;;;;;5075480;28;43029;-78
2024/01/26 12:48:50;;;;;;;;;;;17.40;51.50;;;;;;5083773;27;43092;-78
2024/01/26 12:51:15;;;;;;;;;;;17.40;51.70;;;;;;5085149;27;43359;-78
2024/01/26 12:53:41;;;;;;;;;;;17.50;51.90;;;;;;5084601;28;42932;-79
2024/01/26 12:56:06;;;;;;;;;;;17.50;52.50;;;;;;5083615;28;42976;-79
2024/01/26 12:58:32;;;;;;;;;;;17.50;52.10;;;;;;5084257;28;42957;-77
2024/01/26 13:00:57;;;;;;;;;;;17.50;52.30;;;;;;5083082;28;42912;-78
2024/01/26 13:03:29;;;;;;;;;;;17.60;52.60;;;;;;5082150;28;43040;-77
2024/01/26 13:05:55;;;;;;;;;;;17.70;52.30;;;;;;5080683;27;43138;-77
2024/01/26 13:08:21;;;;;;;;;;;17.60;52.40;;;;;;5078310;28;43011;-78
2024/01/26 13:10:46;;;;;;;;;;;17.60;52.40;;;;;;5084047;28;43756;-78
2024/01/26 13:13:13;;;;;;;;;;;17.60;52.50;;;;;;5084066;27;43124;-79
2024/01/26 13:15:39;;;;;;;;;;;17.60;52.50;;;;;;5084020;27;43066;-79
2024/01/26 13:18:05;;;;;;;;;;;17.60;52.60;;;;;;5083103;27;42997;-78
2024/01/26 13:20:32;;;;;;;;;;;17.60;52.70;;;;;;5084000;27;43060;-79
2024/01/26 13:22:58;;;;;;;;;;;17.70;52.70;;;;;;5083180;27;43380;-77
2024/01/26 13:25:23;;;;;;;;;;;17.70;53.00;;;;;;5084565;28;43003;-78
2024/01/26 13:27:49;;;;;;;;;;;17.70;53.00;;;;;;5079511;28;42865;-78
2024/01/26 13:30:15;;;;;;;;;;;17.70;52.90;;;;;;5077356;28;42920;-78
2024/01/26 13:32:43;;;;;;;;;;;17.70;53.20;;;;;;5082636;27;43216;-78
2024/01/26 13:35:09;;;;;;;;;;;17.70;53.10;;;;;;5082957;27;42988;-78
2024/01/26 13:37:35;;;;;;;;;;;17.70;52.90;;;;;;5083633;27;43089;-77
2024/01/26 13:40:04;;;;;;;;;;;17.70;53.10;;;;;;5083686;27;43754;-78
2024/01/26 13:42:30;;;;;;;;;;;17.70;53.00;;;;;;5083336;27;43019;-79
2024/01/26 13:44:56;;;;;;;;;;;17.70;53.50;;;;;;5083508;27;43505;-78
2024/01/26 13:47:22;;;;;;;;;;;17.70;53.10;;;;;;5083711;28;42861;-78
2024/01/26 13:49:52;;;;;;;;;;;17.80;53.80;;;;;;5082229;27;42950;-79
2024/01/26 13:52:18;;;;;;;;;;;17.70;53.10;;;;;;5083029;27;43132;-79
2024/01/26 13:54:43;;;;;;;;;;;17.70;53.50;;;;;;5082895;27;43927;-79
2024/01/26 13:57:09;;;;;;;;;;;17.70;53.50;;;;;;5083854;28;43054;-78
2024/01/26 13:59:34;;;;;;;;;;;17.70;54.10;;;;;;5083455;27;44051;-79
2024/01/26 14:02:00;;;;;;;;;;;17.80;53.10;;;;;;5083330;28;43039;-78
2024/01/26 14:04:26;;;;;;;;;;;17.80;53.20;;;;;;5082457;27;43015;-79
2024/01/26 14:06:53;;;;;;;;;;;17.70;53.20;;;;;;5081932;27;42933;-79
2024/01/26 14:09:19;;;;;;;;;;;17.70;53.20;;;;;;5083259;27;42974;-79